Time;durP1;ratioP1;P1;durP2;ratioP2;P2;SDS_P1;SDS_P2;PMS_P1;PMS_P2;Temp;Humidity;BMP_temperature;BMP_pressure;BME280_temperature;BME280_humidity;BME280_pressure;Samples;Min_cycle;Max_cycle;Signal;HPM_P1;HPM_P2
2021/11/15 00:00:46;;;;;;;7.97;6.40;;;12.60;75.30;;;;;;5056018;28;20462;-78
2021/11/15 00:03:13;;;;;;;8.45;6.15;;;12.60;75.30;;;;;;5056054;28;20091;-77
2021/11/15 00:05:39;;;;;;;7.97;5.90;;;12.60;75.30;;;;;;5055956;28;20025;-77
2021/11/15 00:08:06;;;;;;;9.60;6.63;;;12.70;75.30;;;;;;5056079;28;20036;-78
2021/11/15 00:10:32;;;;;;;9.18;6.68;;;12.70;75.30;;;;;;5056488;28;20100;-78
2021/11/15 00:12:58;;;;;;;8.55;6.18;;;12.60;75.30;;;;;;5055626;28;20033;-78
2021/11/15 00:15:25;;;;;;;8.52;6.45;;;12.60;75.30;;;;;;5055742;28;20043;-78
2021/11/15 00:17:51;;;;;;;8.00;5.82;;;12.60;75.30;;;;;;5039153;28;20466;-77
2021/11/15 00:20:18;;;;;;;9.18;6.53;;;12.60;75.30;;;;;;5056875;28;20058;-77
2021/11/15 00:22:44;;;;;;;9.63;7.13;;;12.60;75.30;;;;;;5055564;28;20147;-78
2021/11/15 00:25:11;;;;;;;9.48;6.50;;;12.60;75.30;;;;;;5056024;28;20079;-77
2021/11/15 00:27:38;;;;;;;8.77;6.70;;;12.60;75.30;;;;;;5055370;28;20116;-77
2021/11/15 00:30:06;;;;;;;9.40;7.00;;;12.60;75.30;;;;;;5055840;28;20021;-80
2021/11/15 00:32:32;;;;;;;8.68;6.63;;;12.60;75.30;;;;;;5055550;28;20052;-77
2021/11/15 00:34:58;;;;;;;9.48;6.80;;;12.60;75.30;;;;;;5056240;28;20041;-78
2021/11/15 00:37:24;;;;;;;9.20;6.63;;;12.60;75.30;;;;;;5056800;28;20061;-78
2021/11/15 00:39:50;;;;;;;8.63;6.53;;;12.60;75.30;;;;;;5055925;28;20048;-77
2021/11/15 00:42:16;;;;;;;10.45;7.43;;;12.60;75.30;;;;;;5055318;28;20394;-78
2021/11/15 00:44:43;;;;;;;8.82;6.60;;;12.60;75.30;;;;;;5056503;28;20025;-79
2021/11/15 00:47:09;;;;;;;8.77;6.63;;;12.60;75.30;;;;;;5054934;28;20031;-77
2021/11/15 00:49:35;;;;;;;10.80;7.10;;;12.50;75.20;;;;;;5055461;28;20032;-77
2021/11/15 00:52:03;;;;;;;9.57;6.90;;;12.60;75.30;;;;;;5055019;28;20074;-80
2021/11/15 00:54:29;;;;;;;9.38;7.30;;;12.50;75.30;;;;;;5056320;28;20037;-77
2021/11/15 00:56:55;;;;;;;9.02;6.97;;;12.60;75.30;;;;;;5054572;28;20033;-78
2021/11/15 00:59:20;;;;;;;9.63;6.78;;;12.60;75.30;;;;;;5071462;28;20037;-77
2021/11/15 01:01:47;;;;;;;9.60;6.95;;;12.50;75.20;;;;;;5055741;28;20036;-79
2021/11/15 01:04:13;;;;;;;10.00;6.60;;;12.50;75.20;;;;;;5054600;28;20037;-77
2021/11/15 01:06:38;;;;;;;9.80;6.60;;;12.50;75.20;;;;;;5071203;28;20108;-78
2021/11/15 01:09:04;;;;;;;8.70;6.75;;;12.50;75.20;;;;;;5054675;28;20462;-78
2021/11/15 01:11:31;;;;;;;9.43;7.10;;;12.50;75.20;;;;;;5054624;28;20021;-78
2021/11/15 01:13:57;;;;;;;9.48;6.65;;;12.50;75.20;;;;;;5056379;28;20037;-78
2021/11/15 01:16:23;;;;;;;9.85;7.35;;;12.50;75.20;;;;;;5071074;28;20053;-79
2021/11/15 01:18:50;;;;;;;9.23;6.97;;;12.50;75.20;;;;;;5054808;28;20044;-78
2021/11/15 01:21:18;;;;;;;10.18;6.95;;;12.50;75.30;;;;;;5054574;28;20029;-77
2021/11/15 01:23:44;;;;;;;9.15;6.95;;;12.50;75.20;;;;;;5054287;28;20029;-79
2021/11/15 01:26:11;;;;;;;9.43;7.22;;;12.50;75.20;;;;;;5054080;28;20033;-78
2021/11/15 01:28:37;;;;;;;9.55;7.45;;;12.50;75.20;;;;;;5056166;28;20436;-78
2021/11/15 01:31:03;;;;;;;10.13;7.45;;;12.50;75.20;;;;;;5054221;28;20075;-78
2021/11/15 01:33:30;;;;;;;10.13;7.53;;;12.50;75.20;;;;;;5053896;28;20064;-77
2021/11/15 01:35:56;;;;;;;9.38;6.95;;;12.50;75.30;;;;;;5054368;28;20095;-78
2021/11/15 01:38:22;;;;;;;9.27;7.10;;;12.50;75.20;;;;;;5037048;28;20512;-77
2021/11/15 01:40:48;;;;;;;9.30;6.75;;;12.50;75.20;;;;;;5055009;28;20025;-77
2021/11/15 01:43:14;;;;;;;9.27;6.43;;;12.50;75.30;;;;;;5054014;28;20021;-78
2021/11/15 01:45:41;;;;;;;9.90;7.20;;;12.50;75.30;;;;;;5054347;28;20049;-77
2021/11/15 01:48:08;;;;;;;9.18;6.70;;;12.50;75.30;;;;;;5054309;28;20068;-77
2021/11/15 01:50:35;;;;;;;9.05;7.22;;;12.50;75.30;;;;;;5053920;28;20035;-77
2021/11/15 01:53:02;;;;;;;9.25;6.82;;;12.50;75.30;;;;;;5053811;28;20033;-77
2021/11/15 01:55:29;;;;;;;9.25;6.72;;;12.40;75.20;;;;;;5037657;28;20040;-77
2021/11/15 01:57:56;;;;;;;8.90;6.72;;;12.50;75.30;;;;;;5054411;28;20039;-78
2021/11/15 02:00:31;;;;;;;9.50;7.10;;;12.50;75.30;;;;;;5053680;28;20472;-77
2021/11/15 02:02:59;;;;;;;9.45;6.63;;;12.40;75.30;;;;;;5054056;28;20384;-78
2021/11/15 02:05:25;;;;;;;8.85;6.70;;;12.40;75.20;;;;;;5053706;28;20029;-78
2021/11/15 02:07:50;;;;;;;9.00;6.78;;;12.40;75.20;;;;;;5053770;28;20032;-76
2021/11/15 02:10:17;;;;;;;9.77;6.78;;;12.40;75.30;;;;;;5053801;28;20029;-77
2021/11/15 02:12:42;;;;;;;10.32;7.40;;;12.40;75.30;;;;;;5037500;28;20115;-77
2021/11/15 02:15:11;;;;;;;9.32;6.95;;;12.40;75.30;;;;;;5036958;28;20029;-77
2021/11/15 02:17:38;;;;;;;9.52;6.82;;;12.40;75.90;;;;;;5053337;28;20469;-80
2021/11/15 02:20:07;;;;;;;9.07;6.82;;;12.40;75.30;;;;;;5053345;28;20025;-77
2021/11/15 02:22:33;;;;;;;9.80;7.00;;;12.40;75.30;;;;;;5053441;28;20111;-77
2021/11/15 02:25:01;;;;;;;10.75;7.63;;;12.40;75.20;;;;;;5054163;28;20389;-77
2021/11/15 02:27:28;;;;;;;10.05;7.28;;;12.40;75.20;;;;;;5053910;28;20080;-77
2021/11/15 02:29:54;;;;;;;8.85;6.95;;;12.40;75.20;;;;;;5069430;28;20043;-78
2021/11/15 02:32:19;;;;;;;9.05;6.97;;;12.40;75.20;;;;;;5054572;28;20049;-78
2021/11/15 02:34:45;;;;;;;9.60;6.78;;;12.40;75.30;;;;;;5053372;28;20041;-78
2021/11/15 02:37:11;;;;;;;9.57;7.32;;;12.40;75.30;;;;;;5036488;28;20424;-78
2021/11/15 02:39:37;;;;;;;10.05;7.22;;;12.40;75.30;;;;;;5052892;28;20029;-77
2021/11/15 02:42:03;;;;;;;10.00;7.40;;;12.40;75.30;;;;;;5053051;28;20078;-79
2021/11/15 02:44:29;;;;;;;10.43;7.63;;;12.30;75.20;;;;;;5052749;28;20056;-77
2021/11/15 02:46:55;;;;;;;9.63;7.47;;;12.40;75.30;;;;;;5053175;28;20075;-77
2021/11/15 02:49:20;;;;;;;10.38;8.13;;;12.30;75.20;;;;;;5052748;28;20063;-81
2021/11/15 02:51:46;;;;;;;10.57;7.82;;;12.40;75.20;;;;;;5036066;28;20029;-78
2021/11/15 02:54:12;;;;;;;10.15;7.32;;;12.30;75.20;;;;;;5053102;28;20465;-77
2021/11/15 02:56:41;;;;;;;9.57;7.15;;;12.30;75.20;;;;;;5052790;28;20087;-79
2021/11/15 02:59:07;;;;;;;9.57;7.35;;;12.30;75.20;;;;;;5053718;28;20044;-77
2021/11/15 03:01:33;;;;;;;10.00;7.57;;;12.30;75.20;;;;;;5052776;28;20033;-79
2021/11/15 03:03:59;;;;;;;11.38;7.78;;;12.30;75.20;;;;;;5052563;28;20033;-78
2021/11/15 03:06:24;;;;;;;10.77;7.43;;;12.30;75.20;;;;;;5052371;28;20375;-79
2021/11/15 03:08:50;;;;;;;10.52;7.78;;;12.30;75.20;;;;;;5036135;28;20083;-79
2021/11/15 03:11:16;;;;;;;10.80;7.85;;;12.30;75.20;;;;;;5053341;28;20079;-78
2021/11/15 03:13:44;;;;;;;10.63;8.15;;;12.30;75.20;;;;;;5052851;28;20087;-79
2021/11/15 03:16:11;;;;;;;10.75;8.23;;;12.30;75.30;;;;;;5052726;28;20025;-79
2021/11/15 03:18:40;;;;;;;10.88;7.68;;;12.30;75.20;;;;;;5053637;28;20045;-78
2021/11/15 03:21:12;;;;;;;10.13;7.90;;;12.30;75.30;;;;;;5052187;28;20094;-79
2021/11/15 03:23:41;;;;;;;9.63;7.43;;;12.30;75.30;;;;;;5052686;28;20024;-78
2021/11/15 03:26:07;;;;;;;11.13;8.15;;;12.30;75.30;;;;;;5053111;28;20029;-78
2021/11/15 03:28:37;;;;;;;10.32;7.60;;;12.30;75.30;;;;;;5052385;28;20041;-78
2021/11/15 03:31:16;;;;;;;10.82;8.18;;;12.20;75.20;;;;;;5053158;28;20102;-77
2021/11/15 03:33:43;;;;;;;10.50;8.32;;;12.20;75.90;;;;;;5052499;28;20032;-77
2021/11/15 03:36:09;;;;;;;10.98;7.85;;;12.30;75.30;;;;;;5052600;28;20025;-77
2021/11/15 03:38:36;;;;;;;9.85;7.72;;;12.20;75.20;;;;;;5035634;28;20485;-79
2021/11/15 03:41:03;;;;;;;10.35;7.68;;;12.20;75.30;;;;;;5052300;28;20029;-78
2021/11/15 03:43:29;;;;;;;10.68;8.10;;;12.20;75.30;;;;;;5052520;28;20040;-77
2021/11/15 03:45:55;;;;;;;12.18;8.25;;;12.20;75.30;;;;;;5052265;28;20166;-80
2021/11/15 03:48:21;;;;;;;11.18;8.48;;;12.20;75.30;;;;;;5052260;28;20120;-78
2021/11/15 03:50:48;;;;;;;10.70;8.23;;;12.20;75.30;;;;;;5052044;28;20500;-78
2021/11/15 03:53:15;;;;;;;11.95;8.60;;;12.20;75.30;;;;;;5068613;28;20116;-77
2021/11/15 03:55:41;;;;;;;11.52;7.97;;;12.20;75.30;;;;;;5051799;28;20029;-79
2021/11/15 03:58:08;;;;;;;10.70;8.38;;;12.20;75.30;;;;;;5052052;28;20041;-78
2021/11/15 04:00:38;;;;;;;12.55;9.45;;;12.20;75.30;;;;;;5036301;28;20033;-77
2021/11/15 04:03:09;;;;;;;11.45;8.60;;;12.20;75.30;;;;;;5052865;28;20431;-79
2021/11/15 04:05:38;;;;;;;11.35;8.65;;;12.20;75.30;;;;;;5052778;28;20036;-78
2021/11/15 04:08:06;;;;;;;12.15;8.23;;;12.10;75.30;;;;;;5036035;28;20021;-77
2021/11/15 04:10:36;;;;;;;11.48;9.05;;;12.10;75.90;;;;;;5051985;28;20032;-77
2021/11/15 04:13:09;;;;;;;12.77;9.35;;;12.10;75.30;;;;;;5052214;28;20025;-78
2021/11/15 04:15:36;;;;;;;12.10;8.90;;;12.10;76.00;;;;;;5052167;28;20028;-77
2021/11/15 04:18:03;;;;;;;12.07;9.10;;;12.10;75.30;;;;;;5054741;28;20135;-77
2021/11/15 04:20:31;;;;;;;12.07;9.00;;;12.10;75.30;;;;;;5055447;28;20028;-78
2021/11/15 04:22:57;;;;;;;11.35;8.13;;;12.10;75.30;;;;;;5056959;28;20473;-77
2021/11/15 04:25:23;;;;;;;12.05;9.30;;;12.10;75.30;;;;;;5055952;28;20063;-78
2021/11/15 04:27:49;;;;;;;12.48;9.18;;;12.10;75.30;;;;;;5057110;28;20057;-79
2021/11/15 04:30:15;;;;;;;13.07;9.38;;;12.10;75.30;;;;;;5056997;28;20025;-78
2021/11/15 04:32:43;;;;;;;14.57;10.50;;;12.10;75.30;;;;;;5072060;28;20045;-78
2021/11/15 04:35:11;;;;;;;13.25;9.43;;;12.10;75.30;;;;;;5089168;28;20039;-78
2021/11/15 04:37:38;;;;;;;14.13;9.82;;;12.10;75.30;;;;;;5071926;28;20075;-78
2021/11/15 04:40:07;;;;;;;11.90;8.98;;;12.10;75.30;;;;;;5039079;28;20374;-78
2021/11/15 04:42:34;;;;;;;12.80;10.13;;;12.10;75.30;;;;;;5055195;28;20063;-78
2021/11/15 04:45:00;;;;;;;12.82;9.18;;;12.10;75.30;;;;;;5038817;28;20025;-77
2021/11/15 04:47:26;;;;;;;12.98;9.85;;;12.10;75.30;;;;;;5055411;28;20028;-77
2021/11/15 04:49:53;;;;;;;12.20;9.63;;;12.10;75.30;;;;;;5055941;28;20178;-78
2021/11/15 04:52:19;;;;;;;12.68;9.32;;;12.10;75.40;;;;;;5054709;28;20025;-78
2021/11/15 04:54:45;;;;;;;12.23;9.00;;;12.10;75.30;;;;;;5038642;28;20029;-78
2021/11/15 04:57:10;;;;;;;13.07;9.50;;;12.00;75.30;;;;;;5055996;28;20067;-78
2021/11/15 04:59:36;;;;;;;12.75;9.20;;;12.00;75.30;;;;;;5056476;28;20442;-78
2021/11/15 05:02:03;;;;;;;13.27;9.82;;;12.00;75.30;;;;;;5054908;28;20526;-78
2021/11/15 05:04:28;;;;;;;12.55;9.30;;;12.00;75.30;;;;;;5054819;28;20481;-77
2021/11/15 05:06:54;;;;;;;12.50;9.75;;;12.00;75.30;;;;;;5054848;28;20045;-78
2021/11/15 05:09:21;;;;;;;12.30;9.00;;;12.00;75.30;;;;;;5071384;28;20037;-78
2021/11/15 05:11:47;;;;;;;13.38;9.40;;;12.00;75.30;;;;;;5038505;28;20167;-77
2021/11/15 05:14:13;;;;;;;12.93;9.40;;;12.00;75.30;;;;;;5055964;28;20056;-78
2021/11/15 05:16:39;;;;;;;13.63;10.02;;;12.00;75.30;;;;;;5071193;28;20044;-77
2021/11/15 05:19:05;;;;;;;12.85;9.38;;;12.00;75.30;;;;;;5055555;28;20036;-77
2021/11/15 05:21:31;;;;;;;12.85;9.40;;;12.00;75.30;;;;;;5037917;28;20115;-78
2021/11/15 05:23:56;;;;;;;12.10;9.07;;;12.00;75.30;;;;;;5055595;28;20025;-78
2021/11/15 05:26:23;;;;;;;13.00;9.85;;;12.00;75.30;;;;;;5054188;28;20037;-78
2021/11/15 05:28:49;;;;;;;12.93;9.90;;;12.00;75.30;;;;;;5055741;28;20108;-76
2021/11/15 05:31:15;;;;;;;13.88;10.35;;;12.00;75.30;;;;;;5055347;28;20124;-76
2021/11/15 05:33:41;;;;;;;11.73;9.18;;;12.00;75.40;;;;;;5071164;28;20071;-78
2021/11/15 05:36:07;;;;;;;11.73;9.30;;;12.00;75.30;;;;;;5054131;28;20025;-76
2021/11/15 05:38:33;;;;;;;13.63;9.85;;;12.00;75.40;;;;;;5054064;28;20380;-77
2021/11/15 05:40:59;;;;;;;13.18;9.60;;;11.90;75.30;;;;;;5054547;28;20033;-77
2021/11/15 05:43:25;;;;;;;13.73;10.32;;;11.90;75.30;;;;;;5054456;28;20037;-76
2021/11/15 05:45:52;;;;;;;13.18;10.10;;;11.90;75.30;;;;;;5053947;28;20025;-79
2021/11/15 05:48:18;;;;;;;13.52;10.35;;;11.90;75.30;;;;;;5053996;28;20033;-78
2021/11/15 05:50:44;;;;;;;12.23;9.45;;;11.90;75.30;;;;;;5037288;28;20021;-78
2021/11/15 05:53:10;;;;;;;12.93;9.93;;;11.90;75.30;;;;;;5054489;28;20354;-77
2021/11/15 05:55:35;;;;;;;13.73;10.52;;;11.90;75.40;;;;;;5053987;28;20068;-78
2021/11/15 05:58:01;;;;;;;13.05;9.30;;;11.90;75.30;;;;;;5054612;28;20090;-78
2021/11/15 06:00:29;;;;;;;13.02;9.80;;;11.90;75.40;;;;;;5037080;28;20025;-77
2021/11/15 06:02:56;;;;;;;13.45;10.32;;;11.90;75.30;;;;;;5070068;28;20036;-76
2021/11/15 06:05:22;;;;;;;12.15;9.40;;;11.90;75.30;;;;;;5055415;28;20025;-75
2021/11/15 06:07:49;;;;;;;13.05;9.93;;;11.90;75.30;;;;;;5037012;28;20115;-76
2021/11/15 06:10:15;;;;;;;13.55;9.88;;;11.90;75.30;;;;;;5053482;28;20420;-75
2021/11/15 06:12:41;;;;;;;12.50;9.43;;;11.90;75.30;;;;;;5053724;28;20025;-78
2021/11/15 06:15:10;;;;;;;12.50;9.80;;;11.90;75.40;;;;;;5053235;28;20021;-78
2021/11/15 06:17:36;;;;;;;14.73;10.05;;;11.90;75.40;;;;;;5054766;28;20047;-77
2021/11/15 06:20:04;;;;;;;12.35;9.63;;;11.90;75.40;;;;;;5053389;28;20025;-78
2021/11/15 06:22:30;;;;;;;12.90;9.88;;;11.90;75.40;;;;;;5054949;28;20033;-79
2021/11/15 06:24:55;;;;;;;13.07;9.75;;;11.80;75.30;;;;;;5054052;28;20056;-78
2021/11/15 06:27:21;;;;;;;12.35;9.68;;;11.90;75.40;;;;;;5036534;28;20036;-76
2021/11/15 06:29:47;;;;;;;12.35;9.50;;;11.90;75.40;;;;;;5036418;28;20029;-78
2021/11/15 06:32:13;;;;;;;13.82;9.93;;;11.80;75.30;;;;;;5053089;28;20052;-78
2021/11/15 06:34:39;;;;;;;12.00;9.48;;;11.80;75.30;;;;;;5053353;28;20520;-77
2021/11/15 06:37:06;;;;;;;12.50;9.75;;;11.80;75.30;;;;;;5053805;28;20028;-78
2021/11/15 06:39:33;;;;;;;13.52;9.50;;;11.80;75.30;;;;;;5053604;28;20029;-76
2021/11/15 06:41:59;;;;;;;13.30;10.43;;;11.80;75.40;;;;;;5053149;28;20396;-79
2021/11/15 06:44:26;;;;;;;13.43;10.18;;;11.80;75.40;;;;;;5054414;28;20095;-76
2021/11/15 06:46:52;;;;;;;11.90;9.23;;;11.80;75.40;;;;;;5036298;28;20119;-77
2021/11/15 06:49:18;;;;;;;12.23;9.52;;;11.80;75.30;;;;;;5053864;28;20068;-78
2021/11/15 06:51:45;;;;;;;12.98;9.23;;;11.80;75.40;;;;;;5052761;28;20120;-77
2021/11/15 06:54:11;;;;;;;12.93;9.77;;;11.80;75.30;;;;;;5069596;28;20378;-76
2021/11/15 06:56:37;;;;;;;11.88;8.57;;;11.80;75.30;;;;;;5052672;28;20029;-77
2021/11/15 06:59:04;;;;;;;11.15;8.43;;;11.80;75.30;;;;;;5069134;28;20374;-78
2021/11/15 07:01:34;;;;;;;12.18;8.98;;;11.80;75.30;;;;;;5036811;28;20029;-76
2021/11/15 07:04:00;;;;;;;11.95;8.27;;;11.80;75.40;;;;;;5052678;28;20043;-78
2021/11/15 07:06:26;;;;;;;11.68;8.60;;;11.80;75.40;;;;;;5052867;28;20094;-78
2021/11/15 07:08:52;;;;;;;10.55;7.90;;;11.80;75.40;;;;;;5052541;28;20033;-76
2021/11/15 07:11:18;;;;;;;11.27;8.05;;;11.80;75.40;;;;;;5052686;28;20025;-76
2021/11/15 07:13:44;;;;;;;11.25;8.18;;;11.80;75.40;;;;;;5052843;28;20064;-76
2021/11/15 07:16:09;;;;;;;10.80;7.63;;;11.80;75.40;;;;;;5035787;28;20033;-76
2021/11/15 07:18:35;;;;;;;12.50;8.45;;;11.80;75.40;;;;;;5052781;28;20065;-75
2021/11/15 07:21:02;;;;;;;11.82;8.80;;;11.80;75.40;;;;;;5053147;28;20084;-76
2021/11/15 07:23:28;;;;;;;11.75;8.15;;;11.80;75.40;;;;;;5052805;28;20029;-76
2021/11/15 07:25:54;;;;;;;11.88;8.23;;;11.80;75.40;;;;;;5053502;28;20399;-77
2021/11/15 07:28:22;;;;;;;10.80;8.13;;;11.70;75.40;;;;;;5052224;28;20033;-76
2021/11/15 07:30:54;;;;;;;11.23;8.13;;;11.70;75.40;;;;;;5053005;28;20032;-76
2021/11/15 07:33:22;;;;;;;10.80;7.78;;;11.70;75.40;;;;;;5052618;28;20029;-76
2021/11/15 07:35:49;;;;;;;11.85;8.13;;;11.70;75.40;;;;;;5053123;28;20029;-76
2021/11/15 07:38:16;;;;;;;10.35;7.65;;;11.70;75.40;;;;;;5035807;28;20041;-76
2021/11/15 07:40:42;;;;;;;10.65;7.40;;;11.70;75.40;;;;;;5052118;28;20465;-78
2021/11/15 07:43:08;;;;;;;10.05;7.53;;;11.70;75.40;;;;;;5068899;28;20061;-77
2021/11/15 07:45:33;;;;;;;10.88;7.45;;;11.70;75.40;;;;;;5051956;28;20056;-76
2021/11/15 07:47:59;;;;;;;9.13;6.95;;;11.70;75.40;;;;;;5052053;28;20072;-75
2021/11/15 07:50:25;;;;;;;11.00;7.55;;;11.70;75.40;;;;;;5052659;28;20465;-76
2021/11/15 07:52:52;;;;;;;10.25;7.47;;;11.70;75.40;;;;;;5056165;28;20033;-75
2021/11/15 07:55:17;;;;;;;9.32;7.00;;;11.70;75.40;;;;;;5055803;28;20477;-76
2021/11/15 07:57:44;;;;;;;10.13;6.90;;;11.70;75.40;;;;;;5056413;28;20037;-75
2021/11/15 08:00:14;;;;;;;10.50;6.75;;;11.70;75.40;;;;;;5055898;28;20131;-75
2021/11/15 08:02:41;;;;;;;10.15;6.53;;;11.70;75.40;;;;;;5056733;28;20031;-77
2021/11/15 08:05:09;;;;;;;10.60;7.13;;;11.70;76.10;;;;;;5056035;28;20369;-77
2021/11/15 08:07:35;;;;;;;9.65;6.68;;;11.70;75.50;;;;;;5072355;28;20033;-75
2021/11/15 08:10:03;;;;;;;9.15;6.60;;;11.70;75.40;;;;;;5056604;28;20036;-77
2021/11/15 08:12:35;;;;;;;10.25;6.93;;;11.70;75.50;;;;;;5055712;28;20024;-76
2021/11/15 08:15:04;;;;;;;9.50;6.68;;;11.70;75.50;;;;;;5072675;28;20040;-76
2021/11/15 08:17:30;;;;;;;7.78;5.85;;;11.60;75.40;;;;;;5055657;28;20029;-76
2021/11/15 08:19:56;;;;;;;8.88;6.18;;;11.60;75.40;;;;;;5056744;28;20037;-76
2021/11/15 08:22:22;;;;;;;9.77;6.78;;;11.70;75.50;;;;;;5056866;28;20469;-76
2021/11/15 08:24:53;;;;;;;8.52;6.00;;;11.60;75.40;;;;;;5055181;28;20450;-75
2021/11/15 08:27:20;;;;;;;9.07;6.47;;;11.60;75.40;;;;;;5056103;28;20029;-76
2021/11/15 08:29:46;;;;;;;9.00;6.20;;;11.60;75.40;;;;;;5055260;28;20393;-75
2021/11/15 08:32:14;;;;;;;8.93;6.20;;;11.60;75.40;;;;;;5055256;28;20053;-77
2021/11/15 08:34:43;;;;;;;7.43;5.47;;;11.60;75.40;;;;;;5055005;28;20077;-77
2021/11/15 08:37:09;;;;;;;8.95;5.93;;;11.60;75.40;;;;;;5055972;28;20037;-79
2021/11/15 08:39:36;;;;;;;8.63;6.15;;;11.60;75.40;;;;;;5055577;28;20534;-77
2021/11/15 08:42:09;;;;;;;8.57;5.90;;;11.60;75.40;;;;;;5055490;28;20032;-76
2021/11/15 08:44:40;;;;;;;7.97;5.38;;;11.60;75.50;;;;;;5057283;28;20036;-77
2021/11/15 08:47:06;;;;;;;8.15;5.32;;;11.60;75.40;;;;;;5055475;28;20473;-77
2021/11/15 08:49:33;;;;;;;9.05;6.20;;;11.60;75.40;;;;;;5055294;28;20025;-78
2021/11/15 08:52:01;;;;;;;7.93;5.45;;;11.60;75.40;;;;;;5038870;28;20533;-78
2021/11/15 08:54:27;;;;;;;8.27;5.47;;;11.60;75.40;;;;;;5055222;28;20465;-78
2021/11/15 08:56:57;;;;;;;8.13;5.70;;;11.60;75.40;;;;;;5054841;28;20119;-78
2021/11/15 08:59:23;;;;;;;7.93;5.35;;;11.60;75.40;;;;;;5055646;28;20017;-77
2021/11/15 09:01:49;;;;;;;8.15;5.28;;;11.60;75.40;;;;;;5054754;28;20040;-79
2021/11/15 09:04:15;;;;;;;8.55;5.75;;;11.60;75.40;;;;;;5055043;28;20021;-79
2021/11/15 09:06:42;;;;;;;7.53;5.22;;;11.60;75.40;;;;;;5071277;28;20037;-78
2021/11/15 09:09:14;;;;;;;8.00;5.20;;;11.60;75.40;;;;;;5054550;28;20040;-78
2021/11/15 09:11:47;;;;;;;7.32;5.38;;;11.60;75.40;;;;;;5055213;28;20450;-77
2021/11/15 09:14:14;;;;;;;8.77;5.80;;;11.60;75.40;;;;;;5055631;28;20155;-82
2021/11/15 09:16:41;;;;;;;7.45;5.47;;;11.60;75.40;;;;;;5054314;28;20036;-79
2021/11/15 09:19:07;;;;;;;8.32;5.57;;;11.60;75.40;;;;;;5054467;28;20055;-78
2021/11/15 09:21:33;;;;;;;8.40;5.80;;;11.60;75.40;;;;;;5055727;28;20031;-79
2021/11/15 09:23:59;;;;;;;8.57;5.88;;;11.60;75.40;;;;;;5054421;28;20060;-77
2021/11/15 09:26:27;;;;;;;9.15;6.20;;;11.60;75.50;;;;;;5054431;28;20362;-79
2021/11/15 09:28:58;;;;;;;8.18;5.72;;;11.50;75.40;;;;;;5054571;28;20127;-77
2021/11/15 09:31:24;;;;;;;8.55;5.65;;;11.50;75.40;;;;;;5054157;28;20382;-77
2021/11/15 09:33:51;;;;;;;9.57;6.30;;;11.50;75.40;;;;;;5055331;28;20033;-79
2021/11/15 09:36:22;;;;;;;9.07;6.20;;;11.50;75.40;;;;;;5055543;28;20102;-79
2021/11/15 09:38:48;;;;;;;8.27;5.97;;;11.50;75.40;;;;;;5055179;28;20033;-77
2021/11/15 09:41:15;;;;;;;8.82;6.35;;;11.50;75.40;;;;;;5054230;28;20466;-77
2021/11/15 09:43:40;;;;;;;8.57;6.03;;;11.50;75.40;;;;;;5054132;28;20036;-77
2021/11/15 09:46:15;;;;;;;9.38;5.85;;;11.50;75.50;;;;;;5053899;28;20370;-78
2021/11/15 09:48:42;;;;;;;;;;;11.50;75.50;;;;;;5037809;28;20028;-77
2021/11/15 09:51:09;;;;;;;8.30;5.07;;;11.50;75.40;;;;;;5053921;28;19911;-77
2021/11/15 09:53:36;;;;;;;8.05;5.45;;;11.50;75.30;;;;;;5054550;28;20029;-78
2021/11/15 09:56:04;;;;;;;7.50;5.18;;;11.50;75.50;;;;;;5053840;28;20060;-78
2021/11/15 09:58:30;;;;;;;8.27;5.97;;;11.50;75.60;;;;;;5054133;28;20025;-78
2021/11/15 10:00:56;;;;;;;8.45;5.88;;;11.50;75.60;;;;;;5070492;28;20514;-77
2021/11/15 10:03:22;;;;;;;9.20;5.68;;;11.50;75.60;;;;;;5054634;28;20049;-78
2021/11/15 10:05:48;;;;;;;8.80;6.45;;;11.50;75.60;;;;;;5053486;28;20499;-79
2021/11/15 10:08:14;;;;;;;8.32;6.10;;;11.50;75.60;;;;;;5055095;28;20021;-78
2021/11/15 10:10:58;;;;;;;9.18;6.03;;;11.50;75.60;;;;;;5054630;28;20112;-78
2021/11/15 10:13:25;;;;;;;8.02;5.45;;;11.50;75.60;;;;;;5054414;28;20191;-80
2021/11/15 10:15:54;;;;;;;8.07;5.68;;;11.50;75.50;;;;;;5052592;28;20082;-79
2021/11/15 10:18:41;;;;;;;8.27;5.82;;;11.50;75.60;;;;;;5054841;28;20028;-79
2021/11/15 10:21:12;;;;;;;8.52;5.63;;;11.50;75.70;;;;;;5054703;28;20075;-79
2021/11/15 10:23:49;;;;;;;9.23;5.60;;;11.50;75.60;;;;;;5053497;28;20028;-78
2021/11/15 10:26:29;;;;;;;8.82;6.13;;;11.50;75.60;;;;;;5054297;28;20111;-78
2021/11/15 10:29:06;;;;;;;8.75;5.68;;;11.50;75.60;;;;;;5053044;28;20029;-78
2021/11/15 10:31:41;;;;;;;7.63;4.95;;;11.50;75.60;;;;;;5053032;28;20044;-79
2021/11/15 10:34:10;;;;;;;9.95;5.82;;;11.50;75.60;;;;;;5053578;28;20052;-79
2021/11/15 10:37:14;;;;;;;8.85;5.40;;;11.40;75.60;;;;;;5069398;28;20033;-79
2021/11/15 10:40:07;;;;;;;8.43;5.35;;;11.40;75.70;;;;;;5042832;28;20037;-78
2021/11/15 10:42:46;;;;;;;7.55;4.88;;;11.40;75.60;;;;;;5052899;28;20458;-80
2021/11/15 10:45:27;;;;;;;8.60;5.63;;;11.40;75.60;;;;;;5053248;28;20025;-79
2021/11/15 10:48:02;;;;;;;8.45;5.85;;;11.40;75.70;;;;;;5052801;28;20454;-78
2021/11/15 10:50:51;;;;;;;7.38;5.10;;;11.40;75.60;;;;;;5069655;28;20029;-79
2021/11/15 10:53:23;;;;;;;8.20;5.35;;;11.40;75.60;;;;;;5052505;28;20040;-78
2021/11/15 10:56:04;;;;;;;7.55;4.70;;;11.40;75.50;;;;;;5052698;28;20060;-78
2021/11/15 10:58:39;;;;;;;8.30;5.70;;;11.40;75.70;;;;;;5052648;28;20151;-80
2021/11/15 11:01:05;;;;;;;9.00;5.90;;;11.40;75.60;;;;;;5054544;28;20039;-79
2021/11/15 11:03:32;;;;;;;8.05;5.20;;;11.40;75.60;;;;;;5052484;28;20030;-79
2021/11/15 11:06:02;;;;;;;9.23;5.40;;;11.50;75.60;;;;;;5053522;28;20035;-78
2021/11/15 11:08:31;;;;;;;8.07;5.35;;;11.50;75.70;;;;;;5052754;28;20033;-79
2021/11/15 11:11:03;;;;;;;7.95;4.95;;;11.40;75.60;;;;;;5054109;28;20078;-79
2021/11/15 11:14:02;;;;;;;8.05;5.18;;;11.40;75.60;;;;;;5053835;28;20036;-78
2021/11/15 11:16:48;;;;;;;7.82;5.25;;;11.40;75.80;;;;;;5041163;28;20044;-78
2021/11/15 11:19:20;;;;;;;9.15;5.78;;;11.40;75.60;;;;;;5052369;28;20029;-80
2021/11/15 11:22:09;;;;;;;7.93;5.40;;;11.40;75.60;;;;;;5052610;28;20036;-79
2021/11/15 11:27:14;;;;;;;8.20;5.40;;;11.40;75.60;;;;;;5052249;28;20037;-78
2021/11/15 11:29:46;;;;;;;8.27;5.32;;;11.40;75.60;;;;;;5052241;28;20025;-78
2021/11/15 11:32:16;;;;;;;8.55;5.93;;;11.40;75.60;;;;;;5053720;28;20045;-77
2021/11/15 11:34:43;;;;;;;7.90;5.45;;;11.40;75.60;;;;;;5052240;28;20040;-79
2021/11/15 11:37:13;;;;;;;8.52;5.72;;;11.40;75.60;;;;;;5053046;28;20073;-77
2021/11/15 11:39:44;;;;;;;7.88;5.32;;;11.40;75.70;;;;;;5053926;28;20029;-77
2021/11/15 11:42:13;;;;;;;9.85;5.53;;;11.40;75.70;;;;;;5053152;28;20052;-77
2021/11/15 11:44:39;;;;;;;8.68;5.43;;;11.40;75.60;;;;;;5053608;28;20032;-77
2021/11/15 11:47:09;;;;;;;8.93;5.72;;;11.40;75.60;;;;;;5052140;28;20041;-78
2021/11/15 11:49:36;;;;;;;8.48;5.25;;;11.40;75.60;;;;;;5053343;28;20036;-76
2021/11/15 11:52:07;;;;;;;8.55;6.10;;;11.40;75.60;;;;;;5051911;28;20032;-76
2021/11/15 11:54:35;;;;;;;8.45;5.68;;;11.40;75.60;;;;;;5053969;28;20025;-76
2021/11/15 11:57:06;;;;;;;8.90;5.45;;;11.40;75.60;;;;;;5053649;28;20025;-75
2021/11/15 11:59:34;;;;;;;7.75;5.30;;;11.40;75.60;;;;;;5052961;28;20251;-77
2021/11/15 12:02:10;;;;;;;8.60;5.40;;;11.40;75.60;;;;;;5035249;28;20021;-77
2021/11/15 12:04:53;;;;;;;9.00;5.55;;;11.40;75.60;;;;;;5053343;28;20040;-76
2021/11/15 12:07:36;;;;;;;8.38;5.47;;;11.40;75.80;;;;;;5068732;28;20029;-76
2021/11/15 12:10:09;;;;;;;8.73;5.38;;;11.30;75.50;;;;;;5052212;28;20025;-76
2021/11/15 12:12:53;;;;;;;9.02;6.00;;;11.40;75.60;;;;;;5068651;28;20431;-75
2021/11/15 12:15:42;;;;;;;7.35;5.05;;;11.40;75.70;;;;;;5053778;28;20033;-76
2021/11/15 12:18:10;;;;;;;8.35;5.10;;;11.30;75.70;;;;;;5052012;28;20048;-75
2021/11/15 12:21:03;;;;;;;7.68;5.32;;;11.40;75.60;;;;;;5051724;28;20505;-77
2021/11/15 12:23:30;;;;;;;7.68;5.38;;;11.30;75.70;;;;;;5047587;28;20037;-78
2021/11/15 12:26:18;;;;;;;8.40;5.72;;;11.30;75.50;;;;;;5052144;28;20108;-76
2021/11/15 12:28:50;;;;;;;8.10;5.47;;;11.30;75.70;;;;;;5052078;28;20082;-76
2021/11/15 12:31:46;;;;;;;9.23;5.68;;;11.30;75.60;;;;;;5051554;28;20033;-76
2021/11/15 12:34:12;;;;;;;8.20;4.95;;;11.30;75.80;;;;;;5052633;28;20052;-76
2021/11/15 12:36:43;;;;;;;7.45;5.00;;;11.30;75.60;;;;;;5051200;28;20076;-76
2021/11/15 12:39:25;;;;;;;8.52;5.05;;;11.30;75.60;;;;;;5070976;28;20473;-76
2021/11/15 12:41:53;;;;;;;7.93;5.07;;;11.30;75.70;;;;;;5056140;28;20029;-75
2021/11/15 12:44:31;;;;;;;8.98;5.43;;;11.30;75.60;;;;;;5056315;28;20036;-75
2021/11/15 12:47:16;;;;;;;7.72;5.03;;;11.30;75.70;;;;;;5056041;28;20024;-75
2021/11/15 12:49:54;;;;;;;7.30;4.93;;;11.30;75.60;;;;;;5055966;28;20462;-76
2021/11/15 12:52:25;;;;;;;7.90;5.22;;;11.30;75.60;;;;;;5055279;28;20381;-76